Gakona, AK (99586)

11:26 AM AKST on December 04, 2016 (GMT -0900)
Northway | | Change Station

Elev 1722 ft 62.96 °N, 141.93 °W | Updated 33 minutes ago

Overcast
Overcast
-7 °F
Feels Like -7 °F
N
0
Wind Variable Wind from North

Today
High -- | Low -- °F
--% Chance of Precip.
Yesterday
High -- | Low -- °F
Precip. -- in
Pressure 30.65 in
Visibility 10.0 miles
Clouds Few 4000 ft
Overcast 6500 ft
Dew Point -13 °F
Humidity 75%
Rainfall 0.00 in
Snow Depth Not available.
9:38 AM 3:06 PM
Waxing Crescent, 25% visible
METAR PAOR 041953Z 00000KT 10SM FEW040 OVC065 M22/M25 A3042 RMK AO2 SLP379 T12171250
Pressure 30.65 in
Visibility 10.0 miles
Clouds Few 4000 ft
Overcast 6500 ft
Dew Point -13 °F
Humidity 75%
Rainfall 0.00 in
Snow Depth Not available.
9:38 AM 3:06 PM
Waxing Crescent, 25% visible
METAR PAOR 041953Z 00000KT 10SM FEW040 OVC065 M22/M25 A3042 RMK AO2 SLP379 T12171250

10-Day Weather Forecast

Almanac

Astronomy

Dec. 04, 2016 Rise Set
Actual Time
Civil Twilight
Nautical Twilight
Astronomical Twilight
Moon
Length of Visible Light
Length of Day
Tomorrow will be .
, % of the Moon is Illuminated

Today's Extremes

State Highs State Lows

Community

WunderPhotos

Upload Photos

1,955,661 photos uploaded!

WunderBlog® & News

Nearby

Air Quality

  Air Quality AQ Index Pollutant
Not available.

Snow Depth

Station Depth Elevation

Earthquake Activity

City Distance Mag. Time & Date
Minimum magnitude displayed is 2.5.

Coastal Water Temperatures

Place Temperature

Stations

Nearby Weather Stations

Station Location Temp. Windchill Dew Point Humidity Wind Precip. Elev Updated Type
                   

Watches & Warnings

There are currently no watches in effect.